createdAt,value
2017-10-22T00:01:10.344Z,11.78
2017-10-22T00:02:22.643Z,11.86
2017-10-22T00:03:34.967Z,11.88
2017-10-22T00:04:47.593Z,11.86
2017-10-22T00:05:59.259Z,11.81
2017-10-22T00:07:10.907Z,11.89
2017-10-22T00:08:23.571Z,11.83
2017-10-22T00:09:36.200Z,11.85
2017-10-22T00:10:48.791Z,11.91
2017-10-22T00:12:01.113Z,11.88
2017-10-22T00:13:13.111Z,11.91
2017-10-22T00:14:25.082Z,11.89
2017-10-22T00:15:37.700Z,11.93
2017-10-22T00:16:50.337Z,11.93
2017-10-22T00:18:02.991Z,11.93
2017-10-22T00:19:15.310Z,11.96
2017-10-22T00:20:27.632Z,11.93
2017-10-22T00:21:40.255Z,11.89
2017-10-22T00:22:52.543Z,11.95
2017-10-22T00:24:05.196Z,11.88
2017-10-22T00:25:17.858Z,11.85
2017-10-22T00:26:29.816Z,11.83
2017-10-22T00:27:41.809Z,11.89
2017-10-22T00:28:54.453Z,11.83
2017-10-22T00:30:07.117Z,11.86
2017-10-22T00:31:19.123Z,11.95
2017-10-22T00:32:31.754Z,11.93
2017-10-22T00:33:44.076Z,11.97
2017-10-22T00:34:56.729Z,11.88
2017-10-22T00:36:08.401Z,11.88
2017-10-22T00:37:20.694Z,11.85
2017-10-22T00:38:33.041Z,11.86
2017-10-22T00:39:45.361Z,11.91
2017-10-22T00:40:57.682Z,11.89
2017-10-22T00:42:09.721Z,11.85
2017-10-22T00:43:22.045Z,11.85
2017-10-22T00:44:34.693Z,11.85
2017-10-22T00:45:47.007Z,11.86
2017-10-22T00:46:59.331Z,11.91
2017-10-22T00:48:12.011Z,11.81
2017-10-22T00:49:24.653Z,11.89
2017-10-22T00:50:36.994Z,11.93
2017-10-22T00:51:49.614Z,11.89
2017-10-22T00:53:02.217Z,11.83
2017-10-22T00:54:14.848Z,11.89
2017-10-22T00:55:27.455Z,11.78
2017-10-22T00:56:39.793Z,11.86
2017-10-22T00:57:52.427Z,11.88
2017-10-22T00:59:04.406Z,11.83
2017-10-22T01:00:17.038Z,11.86
2017-10-22T01:01:29.658Z,11.88
2017-10-22T01:02:42.305Z,11.81
2017-10-22T01:03:54.941Z,11.78
2017-10-22T01:05:07.262Z,11.89
2017-10-22T01:06:19.584Z,11.81
2017-10-22T01:07:31.588Z,11.89
2017-10-22T01:08:44.183Z,11.93
2017-10-22T01:09:56.514Z,11.93
2017-10-22T01:11:08.828Z,11.95
2017-10-22T01:12:20.833Z,11.88
2017-10-22T01:13:33.169Z,11.89
2017-10-22T01:14:45.170Z,11.89
2017-10-22T01:15:57.830Z,11.89
2017-10-22T01:17:10.144Z,11.97
2017-10-22T01:18:22.141Z,11.86
2017-10-22T01:19:34.482Z,11.99
2017-10-22T01:20:47.106Z,11.91
2017-10-22T01:21:59.747Z,11.86
2017-10-22T01:23:12.380Z,11.89
2017-10-22T01:24:24.702Z,11.89
2017-10-22T01:25:36.997Z,11.99
2017-10-22T01:26:49.639Z,11.96
2017-10-22T01:28:02.296Z,11.91
2017-10-22T01:29:14.290Z,11.95
2017-10-22T01:30:26.942Z,11.97
2017-10-22T01:31:39.254Z,11.97
2017-10-22T01:32:51.899Z,11.99
2017-10-22T01:34:04.519Z,12.02
2017-10-22T01:35:16.807Z,12.03
2017-10-22T01:36:29.452Z,12.02
2017-10-22T01:37:41.437Z,11.99
2017-10-22T01:38:54.068Z,12.02
2017-10-22T01:40:06.394Z,12
2017-10-22T01:41:19.066Z,12.07
2017-10-22T01:42:31.699Z,12.1
2017-10-22T01:43:44.006Z,12.07
2017-10-22T01:44:56.002Z,12.07
2017-10-22T01:46:08.318Z,12.11
2017-10-22T01:47:20.948Z,11.99
2017-10-22T01:48:33.602Z,12.08
2017-10-22T01:49:45.905Z,12.08
2017-10-22T01:50:58.208Z,12.03
2017-10-22T01:52:10.859Z,12.11
2017-10-22T01:53:22.873Z,12.12
2017-10-22T01:54:35.510Z,12.11
2017-10-22T01:55:48.113Z,12.08
2017-10-22T01:57:00.757Z,12.08
2017-10-22T01:58:12.728Z,12.08
2017-10-22T01:59:25.367Z,12.18
2017-10-22T02:00:37.363Z,12.15
2017-10-22T02:01:49.994Z,12.11
2017-10-22T02:03:02.636Z,12.12
2017-10-22T02:04:14.932Z,12.1
2017-10-22T02:05:27.552Z,12.08
2017-10-22T02:06:39.879Z,12.03
2017-10-22T02:07:52.187Z,12.08
2017-10-22T02:09:04.765Z,12.14
2017-10-22T02:10:17.080Z,12.1
2017-10-22T02:11:29.430Z,12.2
2017-10-22T02:12:42.081Z,12.08
2017-10-22T02:13:54.386Z,12.03
2017-10-22T02:15:07.331Z,12.15
2017-10-22T02:16:19.316Z,12.17
2017-10-22T02:17:31.943Z,12.08
2017-10-22T02:18:44.256Z,12.12
2017-10-22T02:19:56.574Z,12.14
2017-10-22T02:21:08.564Z,12.11
2017-10-22T02:22:21.187Z,12.11
2017-10-22T02:23:33.808Z,12.07
2017-10-22T02:24:46.429Z,12.08
2017-10-22T02:25:58.733Z,12.07
2017-10-22T02:27:11.374Z,12.1
2017-10-22T02:28:23.991Z,12.07
2017-10-22T02:29:36.318Z,12.08
2017-10-22T02:30:48.967Z,12.02
2017-10-22T02:32:01.599Z,12.08
2017-10-22T02:33:14.232Z,12.02
2017-10-22T02:34:26.867Z,12.02
2017-10-22T02:35:39.157Z,12.02
2017-10-22T02:36:51.760Z,12.17
2017-10-22T02:38:04.089Z,12.11
2017-10-22T02:39:16.686Z,12.08
2017-10-22T02:40:28.998Z,12.03
2017-10-22T02:41:41.639Z,12.2
2017-10-22T02:42:53.896Z,12.02
2017-10-22T02:44:06.533Z,12.18
2017-10-22T02:45:18.822Z,12.2
2017-10-22T02:46:31.179Z,12.1
2017-10-22T02:47:43.818Z,12.2
2017-10-22T02:48:56.452Z,12.08
2017-10-22T02:50:08.771Z,12.11
2017-10-22T02:51:21.437Z,12.05
2017-10-22T02:52:34.087Z,12.07
2017-10-22T02:53:46.725Z,12.08
2017-10-22T02:54:59.041Z,12.11
2017-10-22T02:56:11.372Z,12.11
2017-10-22T02:57:23.370Z,12.08
2017-10-22T02:58:36.028Z,12.17
2017-10-22T02:59:48.349Z,12.15
2017-10-22T03:01:00.986Z,12.14
2017-10-22T03:02:13.316Z,12.15
2017-10-22T03:03:25.289Z,12.12
2017-10-22T03:04:37.585Z,12.15
2017-10-22T03:05:50.222Z,12.07
2017-10-22T03:07:02.827Z,12.17
2017-10-22T03:08:15.451Z,12.14
2017-10-22T03:09:27.771Z,12.11
2017-10-22T03:10:40.397Z,12.12
2017-10-22T03:11:53.030Z,12.17
2017-10-22T03:13:05.658Z,12.2
2017-10-22T03:14:17.955Z,12.17
2017-10-22T03:15:30.582Z,12.12
2017-10-22T03:16:42.546Z,12.1
2017-10-22T03:17:54.517Z,12.1
2017-10-22T03:19:07.161Z,12.11
2017-10-22T03:20:19.828Z,12.17
2017-10-22T03:21:31.829Z,12.18
2017-10-22T03:22:44.142Z,12.18
2017-10-22T03:23:56.462Z,12.18
2017-10-22T03:25:08.769Z,12.18
2017-10-22T03:26:21.411Z,12.18
2017-10-22T03:27:34.027Z,12.17
2017-10-22T03:28:46.327Z,12.21
2017-10-22T03:29:58.621Z,12.1
2017-10-22T03:31:10.972Z,12.15
2017-10-22T03:32:23.270Z,12.2
2017-10-22T03:33:35.910Z,12.2
2017-10-22T03:34:48.548Z,12.17
2017-10-22T03:36:00.559Z,12.1
2017-10-22T03:37:13.174Z,12.12
2017-10-22T03:38:25.805Z,12.12
2017-10-22T03:39:38.108Z,12.11
2017-10-22T03:40:50.711Z,12.14
2017-10-22T03:42:03.354Z,12.12
2017-10-22T03:43:15.349Z,12.14
2017-10-22T03:44:27.991Z,12.08
2017-10-22T03:45:40.617Z,12.05
2017-10-22T03:46:53.257Z,12.03
2017-10-22T03:48:05.578Z,12.07
2017-10-22T03:49:17.945Z,12.07
2017-10-22T03:50:30.595Z,11.99
2017-10-22T03:51:43.209Z,12.07
2017-10-22T03:52:56.115Z,11.97
2017-10-22T03:54:08.418Z,11.97
2017-10-22T03:55:20.702Z,12.02
2017-10-22T03:56:32.694Z,11.95
2017-10-22T03:57:45.326Z,11.89
2017-10-22T03:58:57.972Z,11.89
2017-10-22T04:00:10.289Z,11.85
2017-10-22T04:01:22.952Z,11.91
2017-10-22T04:02:35.286Z,11.89
2017-10-22T04:03:47.929Z,11.95
2017-10-22T04:05:00.243Z,11.89
2017-10-22T04:06:12.870Z,11.88
2017-10-22T04:07:25.508Z,11.88
2017-10-22T04:08:37.488Z,11.83
2017-10-22T04:09:49.804Z,11.86
2017-10-22T04:11:02.454Z,11.89
2017-10-22T04:12:15.113Z,11.83
2017-10-22T04:13:27.763Z,11.78
2017-10-22T04:14:40.078Z,11.77
2017-10-22T04:15:52.684Z,11.78
2017-10-22T04:17:04.983Z,11.83
2017-10-22T04:18:17.620Z,11.76
2017-10-22T04:19:29.922Z,11.71
2017-10-22T04:20:42.242Z,11.71
2017-10-22T04:21:54.548Z,11.7
2017-10-22T04:23:07.207Z,11.78
2017-10-22T04:24:19.522Z,11.73
2017-10-22T04:25:32.073Z,11.7
2017-10-22T04:26:44.689Z,11.68
2017-10-22T04:27:57.315Z,11.62
2017-10-22T04:29:09.617Z,11.65
2017-10-22T04:30:22.263Z,11.62
2017-10-22T04:31:34.900Z,11.71
2017-10-22T04:32:46.893Z,11.7
2017-10-22T04:33:59.546Z,11.56
2017-10-22T04:35:11.517Z,11.56
2017-10-22T04:36:23.814Z,11.65
2017-10-22T04:37:36.105Z,11.55
2017-10-22T04:38:48.424Z,11.62
2017-10-22T04:40:00.762Z,11.62
2017-10-22T04:41:12.769Z,11.56
2017-10-22T04:42:25.062Z,11.56
2017-10-22T04:43:37.695Z,11.55
2017-10-22T04:44:50.298Z,11.58
2017-10-22T04:46:02.902Z,11.63
2017-10-22T04:47:15.523Z,11.55
2017-10-22T04:48:27.805Z,11.58
2017-10-22T04:49:40.435Z,11.58
2017-10-22T04:50:52.759Z,11.51
2017-10-22T04:52:04.769Z,11.55
2017-10-22T04:53:17.399Z,11.59
2017-10-22T04:54:29.688Z,11.53
2017-10-22T04:55:42.009Z,11.53
2017-10-22T04:56:54.637Z,11.58
2017-10-22T04:58:06.934Z,11.55
2017-10-22T04:59:19.546Z,11.52
2017-10-22T05:00:31.889Z,11.59
2017-10-22T05:01:44.534Z,11.53
2017-10-22T05:02:57.184Z,11.56
2017-10-22T05:04:09.189Z,11.53
2017-10-22T05:05:21.851Z,11.56
2017-10-22T05:06:34.491Z,11.59
2017-10-22T05:07:46.815Z,11.55
2017-10-22T05:08:59.443Z,11.62
2017-10-22T05:10:11.735Z,11.56
2017-10-22T05:11:24.355Z,11.58
2017-10-22T05:12:36.677Z,11.56
2017-10-22T05:13:49.280Z,11.59
2017-10-22T05:15:02.220Z,11.55
2017-10-22T05:16:14.186Z,11.58
2017-10-22T05:17:26.861Z,11.63
2017-10-22T05:18:39.491Z,11.68
2017-10-22T05:19:51.799Z,11.68
2017-10-22T05:21:04.421Z,11.6
2017-10-22T05:22:16.782Z,11.63
2017-10-22T05:23:28.752Z,11.63
2017-10-22T05:24:41.379Z,11.68
2017-10-22T05:25:53.385Z,11.68
2017-10-22T05:27:06.056Z,11.63
2017-10-22T05:28:18.370Z,11.74
2017-10-22T05:29:30.690Z,11.7
2017-10-22T05:30:43.329Z,11.65
2017-10-22T05:31:55.957Z,11.71
2017-10-22T05:33:08.259Z,11.6
2017-10-22T05:34:20.927Z,11.71
2017-10-22T05:35:33.280Z,11.68
2017-10-22T05:36:45.282Z,11.71
2017-10-22T05:37:57.609Z,11.76
2017-10-22T05:39:09.885Z,11.68
2017-10-22T05:40:22.181Z,11.76
2017-10-22T05:41:35.072Z,11.76
2017-10-22T05:42:47.699Z,11.78
2017-10-22T05:44:00.020Z,11.81
2017-10-22T05:45:12.665Z,11.77
2017-10-22T05:46:25.309Z,11.83
2017-10-22T05:47:37.292Z,11.76
2017-10-22T05:48:49.943Z,11.83
2017-10-22T05:50:02.244Z,11.76
2017-10-22T05:51:14.554Z,11.8
2017-10-22T05:52:27.229Z,11.77
2017-10-22T05:53:39.546Z,11.71
2017-10-22T05:54:52.195Z,11.68
2017-10-22T05:56:04.541Z,11.67
2017-10-22T05:57:16.546Z,11.68
2017-10-22T05:58:28.832Z,11.71
2017-10-22T05:59:41.483Z,11.68
2017-10-22T06:00:54.103Z,11.71
2017-10-22T06:02:06.726Z,11.67
2017-10-22T06:03:19.642Z,11.74
2017-10-22T06:04:31.313Z,11.71
2017-10-22T06:05:43.605Z,11.77
2017-10-22T06:06:55.906Z,11.74
2017-10-22T06:08:08.525Z,11.6
2017-10-22T06:09:21.147Z,11.6
2017-10-22T06:10:33.485Z,11.67
2017-10-22T06:11:45.485Z,11.62
2017-10-22T06:12:58.127Z,11.56
2017-10-22T06:14:10.788Z,11.67
2017-10-22T06:15:23.068Z,11.58
2017-10-22T06:16:35.405Z,11.62
2017-10-22T06:17:47.691Z,11.62
2017-10-22T06:19:00.035Z,11.59
2017-10-22T06:20:12.682Z,11.53
2017-10-22T06:21:25.308Z,11.6
2017-10-22T06:22:37.630Z,11.58
2017-10-22T06:23:49.945Z,11.49
2017-10-22T06:25:02.265Z,11.55
2017-10-22T06:26:14.564Z,11.49
2017-10-22T06:27:27.178Z,11.45
2017-10-22T06:28:39.476Z,11.43
2017-10-22T06:29:51.779Z,11.45
2017-10-22T06:31:04.419Z,11.48
2017-10-22T06:32:16.738Z,11.48
2017-10-22T06:33:29.382Z,11.45
2017-10-22T06:34:41.685Z,11.48
2017-10-22T06:35:54.330Z,11.41
2017-10-22T06:37:06.310Z,11.31
2017-10-22T06:38:18.932Z,11.35
2017-10-22T06:39:31.572Z,11.38
2017-10-22T06:40:44.216Z,11.35
2017-10-22T06:41:56.530Z,11.48
2017-10-22T06:43:09.164Z,11.4
2017-10-22T06:44:21.479Z,11.44
2017-10-22T06:45:34.109Z,11.52
2017-10-22T06:46:46.472Z,11.43
2017-10-22T06:47:58.475Z,11.45
2017-10-22T06:49:11.117Z,11.4
2017-10-22T06:50:23.398Z,11.44
2017-10-22T06:51:35.712Z,11.38
2017-10-22T06:52:48.347Z,11.41
2017-10-22T06:54:00.985Z,11.4
2017-10-22T06:55:13.321Z,11.43
2017-10-22T06:56:25.937Z,11.44
2017-10-22T06:57:38.552Z,11.33
2017-10-22T06:58:51.172Z,11.33
2017-10-22T07:00:03.815Z,11.33
2017-10-22T07:01:15.794Z,11.38
2017-10-22T07:02:28.106Z,11.34
2017-10-22T07:03:40.723Z,11.35
2017-10-22T07:04:53.335Z,11.34
2017-10-22T07:06:05.642Z,11.34
2017-10-22T07:07:18.271Z,11.4
2017-10-22T07:08:30.579Z,11.37
2017-10-22T07:09:43.230Z,11.35
2017-10-22T07:10:55.557Z,11.4
2017-10-22T07:12:08.201Z,11.4
2017-10-22T07:13:20.548Z,11.37
2017-10-22T07:14:33.162Z,11.41
2017-10-22T07:15:45.780Z,11.49
2017-10-22T07:16:58.423Z,11.41
2017-10-22T07:18:11.053Z,11.45
2017-10-22T07:19:23.674Z,11.35
2017-10-22T07:20:36.293Z,11.45
2017-10-22T07:21:48.960Z,11.43
2017-10-22T07:23:01.581Z,11.37
2017-10-22T07:24:13.924Z,11.35
2017-10-22T07:25:25.914Z,11.4
2017-10-22T07:26:38.541Z,11.38
2017-10-22T07:27:50.568Z,11.37
2017-10-22T07:29:02.546Z,11.33
2017-10-22T07:30:15.182Z,11.3
2017-10-22T07:31:27.823Z,11.3
2017-10-22T07:32:40.468Z,11.26
2017-10-22T07:33:52.796Z,11.23
2017-10-22T07:35:05.440Z,11.22
2017-10-22T07:36:18.046Z,11.22
2017-10-22T07:37:30.681Z,11.19
2017-10-22T07:38:42.994Z,11.23
2017-10-22T07:39:55.650Z,11.22
2017-10-22T07:41:07.321Z,11.23
2017-10-22T07:42:19.961Z,11.31
2017-10-22T07:43:32.609Z,11.37
2017-10-22T07:44:45.256Z,11.35
2017-10-22T07:45:57.901Z,11.45
2017-10-22T07:47:10.537Z,11.45
2017-10-22T07:48:23.181Z,11.58
2017-10-22T07:49:35.223Z,11.59
2017-10-22T07:50:47.888Z,11.71
2017-10-22T07:52:00.190Z,11.63
2017-10-22T07:53:12.827Z,11.68
2017-10-22T07:54:24.821Z,11.59
2017-10-22T07:55:37.496Z,11.65
2017-10-22T07:56:50.128Z,11.58
2017-10-22T07:58:02.787Z,11.58
2017-10-22T07:59:15.456Z,11.51
2017-10-22T08:00:27.789Z,11.52
2017-10-22T08:01:40.537Z,11.45
2017-10-22T08:02:53.235Z,11.51
2017-10-22T08:04:05.883Z,11.41
2017-10-22T08:05:18.518Z,11.34
2017-10-22T08:06:31.150Z,11.34
2017-10-22T08:07:43.771Z,11.34
2017-10-22T08:08:55.433Z,11.37
2017-10-22T08:10:07.776Z,11.37
2017-10-22T08:11:20.100Z,11.33
2017-10-22T08:12:32.724Z,11.35
2017-10-22T08:13:45.347Z,11.35
2017-10-22T08:14:57.643Z,11.35
2017-10-22T08:16:09.965Z,11.35
2017-10-22T08:17:22.611Z,11.37
2017-10-22T08:18:35.255Z,11.4
2017-10-22T08:19:47.874Z,11.41
2017-10-22T08:21:00.526Z,11.52
2017-10-22T08:22:13.180Z,11.48
2017-10-22T08:23:25.826Z,11.52
2017-10-22T08:24:38.109Z,11.52
2017-10-22T08:25:50.105Z,11.56
2017-10-22T08:27:02.746Z,11.58
2017-10-22T08:28:15.027Z,11.6
2017-10-22T08:29:27.346Z,11.71
2017-10-22T08:30:39.680Z,11.73
2017-10-22T08:31:51.672Z,11.67
2017-10-22T08:33:03.654Z,11.74
2017-10-22T08:34:15.321Z,11.7
2017-10-22T08:35:27.940Z,11.78
2017-10-22T08:36:40.565Z,11.78
2017-10-22T08:37:53.193Z,11.81
2017-10-22T08:39:05.516Z,11.91
2017-10-22T08:40:17.828Z,11.85
2017-10-22T08:41:30.161Z,11.83
2017-10-22T08:42:42.794Z,11.83
2017-10-22T08:43:55.446Z,11.85
2017-10-22T08:45:07.763Z,11.85
2017-10-22T08:46:20.082Z,11.86
2017-10-22T08:47:32.378Z,11.88
2017-10-22T08:48:45.022Z,11.88
2017-10-22T08:49:57.683Z,11.83
2017-10-22T08:51:10.006Z,11.77
2017-10-22T08:52:22.634Z,11.77
2017-10-22T08:53:34.615Z,11.71
2017-10-22T08:54:46.909Z,11.62
2017-10-22T08:55:59.539Z,11.62
2017-10-22T08:57:11.843Z,11.71
2017-10-22T08:58:23.510Z,11.68
2017-10-22T08:59:35.834Z,11.6
2017-10-22T09:00:48.447Z,11.71
2017-10-22T09:02:00.723Z,11.59
2017-10-22T09:03:13.358Z,11.63
2017-10-22T09:04:25.690Z,11.73
2017-10-22T09:05:37.989Z,11.59
2017-10-22T09:06:50.628Z,11.67
2017-10-22T09:08:02.944Z,11.74
2017-10-22T09:09:15.276Z,11.7
2017-10-22T09:10:27.924Z,11.73
2017-10-22T09:11:40.582Z,11.67
2017-10-22T09:12:52.928Z,11.81
2017-10-22T09:14:05.585Z,11.74
2017-10-22T09:15:17.930Z,11.83
2017-10-22T09:16:30.571Z,11.78
2017-10-22T09:17:42.869Z,11.85
2017-10-22T09:18:55.491Z,11.8
2017-10-22T09:20:08.165Z,11.83
2017-10-22T09:21:20.502Z,11.86
2017-10-22T09:22:32.809Z,11.85
2017-10-22T09:23:45.447Z,11.91
2017-10-22T09:24:57.758Z,11.86
2017-10-22T09:26:10.417Z,11.91
2017-10-22T09:27:22.712Z,11.86
2017-10-22T09:28:35.324Z,11.91
2017-10-22T09:29:47.326Z,11.88
2017-10-22T09:30:59.996Z,11.86
2017-10-22T09:32:12.658Z,11.91
2017-10-22T09:33:25.284Z,11.95
2017-10-22T09:34:37.932Z,11.93
2017-10-22T09:35:50.571Z,11.95
2017-10-22T09:37:03.218Z,11.95
2017-10-22T09:38:15.543Z,11.88
2017-10-22T09:39:28.188Z,11.88
2017-10-22T09:40:40.753Z,11.81
2017-10-22T09:41:53.084Z,11.86
2017-10-22T09:43:05.726Z,11.93
2017-10-22T09:44:18.376Z,11.91
2017-10-22T09:45:31.018Z,12
2017-10-22T09:46:43.685Z,11.96
2017-10-22T09:47:55.691Z,12.08
2017-10-22T09:49:08.033Z,11.97
2017-10-22T09:50:20.031Z,12.14
2017-10-22T09:51:32.348Z,12.11
2017-10-22T09:52:44.974Z,12.2
2017-10-22T09:53:57.592Z,12.15
2017-10-22T09:55:10.703Z,12.21
2017-10-22T09:56:23.352Z,12.2
2017-10-22T09:57:35.691Z,12.3
2017-10-22T09:58:48.017Z,12.3
2017-10-22T10:00:00.662Z,12.43
2017-10-22T10:01:12.978Z,12.39
2017-10-22T10:02:25.608Z,12.44
2017-10-22T10:03:37.906Z,12.4
2017-10-22T10:04:50.197Z,12.5
2017-10-22T10:06:02.510Z,12.55
2017-10-22T10:07:15.165Z,12.53
2017-10-22T10:08:27.476Z,12.54
2017-10-22T10:09:39.782Z,12.57
2017-10-22T10:10:51.775Z,12.58
2017-10-22T10:12:03.749Z,12.62
2017-10-22T10:13:15.768Z,12.58
2017-10-22T10:14:28.420Z,12.76
2017-10-22T10:15:41.051Z,12.76
2017-10-22T10:16:53.725Z,12.69
2017-10-22T10:18:06.375Z,12.76
2017-10-22T10:19:19.246Z,12.78
2017-10-22T10:20:31.884Z,12.87
2017-10-22T10:21:43.565Z,12.87
2017-10-22T10:22:55.548Z,12.8
2017-10-22T10:24:07.529Z,12.88
2017-10-22T10:25:19.841Z,12.93
2017-10-22T10:26:32.442Z,12.95
2017-10-22T10:27:44.763Z,12.91
2017-10-22T10:28:57.425Z,12.95
2017-10-22T10:30:08.748Z,12.98
2017-10-22T10:31:21.377Z,12.95
2017-10-22T10:32:33.671Z,12.99
2017-10-22T10:33:45.995Z,13.06
2017-10-22T10:34:58.294Z,13.12
2017-10-22T10:36:10.609Z,13.08
2017-10-22T10:37:22.923Z,13.23
2017-10-22T10:38:35.566Z,13.24
2017-10-22T10:39:48.221Z,13.27
2017-10-22T10:41:00.516Z,13.24
2017-10-22T10:42:12.814Z,13.33
2017-10-22T10:43:25.430Z,13.46
2017-10-22T10:44:37.467Z,13.55
2017-10-22T10:45:49.753Z,13.62
2017-10-22T10:47:01.736Z,13.65
2017-10-22T10:48:14.338Z,13.67
2017-10-22T10:49:26.635Z,13.79
2017-10-22T10:50:39.260Z,13.78
2017-10-22T10:51:51.228Z,13.82
2017-10-22T10:53:03.844Z,13.89
2017-10-22T10:54:15.843Z,13.83
2017-10-22T10:55:27.530Z,13.95
2017-10-22T10:56:40.182Z,14.03
2017-10-22T10:57:52.833Z,14.04
2017-10-22T10:59:05.190Z,14.11
2017-10-22T11:00:17.524Z,14.16
2017-10-22T11:01:29.195Z,14.26
2017-10-22T11:02:41.839Z,14.23
2017-10-22T11:03:54.525Z,14.23
2017-10-22T11:05:07.151Z,14.22
2017-10-22T11:06:19.477Z,14.26
2017-10-22T11:07:32.112Z,14.28
2017-10-22T11:08:44.771Z,14.3
2017-10-22T11:09:57.063Z,14.23
2017-10-22T11:11:09.357Z,14.31
2017-10-22T11:12:21.998Z,14.26
2017-10-22T11:13:34.028Z,14.28
2017-10-22T11:14:46.650Z,14.37
2017-10-22T11:15:58.958Z,14.37
2017-10-22T11:17:10.962Z,14.26
2017-10-22T11:18:23.535Z,14.26
2017-10-22T11:19:36.175Z,14.25
2017-10-22T11:20:48.497Z,14.25
2017-10-22T11:22:01.140Z,14.19
2017-10-22T11:23:13.472Z,14.08
2017-10-22T11:24:25.773Z,14.05
2017-10-22T11:25:38.428Z,14.04
2017-10-22T11:26:50.727Z,13.97
2017-10-22T11:28:03.375Z,14.07
2017-10-22T11:29:15.700Z,14.04
2017-10-22T11:30:28.023Z,14.13
2017-10-22T11:31:40.359Z,14
2017-10-22T11:32:52.997Z,14.04
2017-10-22T11:34:04.677Z,14.07
2017-10-22T11:35:17.314Z,14.12
2017-10-22T11:36:29.317Z,14.15
2017-10-22T11:37:41.326Z,14.07
2017-10-22T11:38:53.637Z,14.2
2017-10-22T11:40:06.529Z,14.23
2017-10-22T11:41:18.824Z,14.28
2017-10-22T11:42:31.471Z,14.38
2017-10-22T11:43:43.441Z,14.41
2017-10-22T11:44:56.080Z,14.4
2017-10-22T11:46:08.075Z,14.43
2017-10-22T11:47:20.430Z,14.45
2017-10-22T11:48:32.740Z,14.45
2017-10-22T11:49:45.076Z,14.44
2017-10-22T11:50:57.694Z,14.45
2017-10-22T11:52:09.998Z,14.45
2017-10-22T11:53:22.306Z,14.3
2017-10-22T11:54:34.966Z,14.31
2017-10-22T11:55:47.617Z,14.31
2017-10-22T11:56:59.602Z,14.2
2017-10-22T11:58:11.939Z,14.34
2017-10-22T11:59:24.233Z,14.25
2017-10-22T12:00:36.572Z,14.28
2017-10-22T12:01:48.871Z,14.18
2017-10-22T12:03:01.185Z,14.15
2017-10-22T12:04:13.836Z,14.15
2017-10-22T12:05:26.154Z,14.05
2017-10-22T12:06:38.813Z,14.11
2017-10-22T12:07:51.124Z,14.04
2017-10-22T12:09:03.797Z,14.01
2017-10-22T12:10:16.419Z,14.04
2017-10-22T12:11:29.044Z,14
2017-10-22T12:12:41.386Z,14.11
2017-10-22T12:13:53.685Z,14.04
2017-10-22T12:15:06.302Z,14.03
2017-10-22T12:16:18.954Z,13.97
2017-10-22T12:17:31.256Z,14.04
2017-10-22T12:18:43.227Z,13.94
2017-10-22T12:19:55.231Z,14.07
2017-10-22T12:21:06.879Z,13.98
2017-10-22T12:22:19.181Z,14.03
2017-10-22T12:23:31.751Z,13.97
2017-10-22T12:24:44.371Z,13.91
2017-10-22T12:25:56.984Z,13.97
2017-10-22T12:27:09.286Z,13.91
2017-10-22T12:28:21.261Z,13.89
2017-10-22T12:29:33.870Z,13.86
2017-10-22T12:30:46.515Z,13.87
2017-10-22T12:31:59.175Z,13.85
2017-10-22T12:33:11.479Z,13.79
2017-10-22T12:34:24.138Z,13.83
2017-10-22T12:35:36.470Z,13.82
2017-10-22T12:36:49.145Z,13.75
2017-10-22T12:38:01.777Z,13.76
2017-10-22T12:39:14.090Z,13.83
2017-10-22T12:40:26.410Z,13.85
2017-10-22T12:41:38.723Z,13.91
2017-10-22T12:42:51.329Z,13.87
2017-10-22T12:44:03.950Z,13.83
2017-10-22T12:45:16.557Z,13.89
2017-10-22T12:46:29.189Z,13.8
2017-10-22T12:47:41.836Z,13.87
2017-10-22T12:48:53.511Z,13.89
2017-10-22T12:50:05.847Z,13.86
2017-10-22T12:51:18.171Z,13.87
2017-10-22T12:52:30.485Z,13.8
2017-10-22T12:53:42.809Z,13.85
2017-10-22T12:54:55.113Z,13.67
2017-10-22T12:56:07.731Z,13.65
2017-10-22T12:57:20.039Z,13.64
2017-10-22T12:58:31.698Z,13.71
2017-10-22T12:59:44.358Z,13.57
2017-10-22T13:00:56.634Z,13.5
2017-10-22T13:02:08.612Z,13.4
2017-10-22T13:03:20.946Z,13.28
2017-10-22T13:04:33.290Z,13.24
2017-10-22T13:05:45.943Z,13.19
2017-10-22T13:06:58.566Z,13.23
2017-10-22T13:08:10.881Z,13.08
2017-10-22T13:09:22.938Z,12.95
2017-10-22T13:10:35.566Z,13.11
2017-10-22T13:11:47.844Z,12.91
2017-10-22T13:13:00.174Z,13.01
2017-10-22T13:14:12.481Z,13.01
2017-10-22T13:15:24.474Z,12.99
2017-10-22T13:16:36.797Z,13.02
2017-10-22T13:17:49.101Z,13.11
2017-10-22T13:19:01.425Z,13.09
2017-10-22T13:20:13.426Z,13.17
2017-10-22T13:21:25.752Z,13.17
2017-10-22T13:22:38.402Z,13.26
2017-10-22T13:23:50.410Z,13.23
2017-10-22T13:25:02.717Z,13.21
2017-10-22T13:26:15.359Z,13.2
2017-10-22T13:27:27.669Z,13.19
2017-10-22T13:28:40.292Z,13.31
2017-10-22T13:29:52.304Z,13.2
2017-10-22T13:31:04.927Z,13.27
2017-10-22T13:32:17.245Z,13.31
2017-10-22T13:33:29.874Z,13.26
2017-10-22T13:34:42.169Z,13.2
2017-10-22T13:35:54.509Z,13.31
2017-10-22T13:37:07.134Z,13.2
2017-10-22T13:38:19.443Z,13.36
2017-10-22T13:39:31.678Z,13.3
2017-10-22T13:40:44.299Z,13.33
2017-10-22T13:41:56.935Z,13.39
2017-10-22T13:43:09.576Z,13.42
2017-10-22T13:44:21.900Z,13.4
2017-10-22T13:45:34.544Z,13.42
2017-10-22T13:46:47.147Z,13.49
2017-10-22T13:47:59.797Z,13.45
2017-10-22T13:49:12.418Z,13.43
2017-10-22T13:50:24.409Z,13.5
2017-10-22T13:51:36.731Z,13.47
2017-10-22T13:52:49.037Z,13.5
2017-10-22T13:54:01.654Z,13.46
2017-10-22T13:55:14.297Z,13.43
2017-10-22T13:56:26.915Z,13.45
2017-10-22T13:57:39.562Z,13.39
2017-10-22T13:58:52.199Z,13.45
2017-10-22T14:00:04.524Z,13.36
2017-10-22T14:01:17.185Z,13.42
2017-10-22T14:02:29.486Z,13.39
2017-10-22T14:03:41.824Z,13.4
2017-10-22T14:04:54.126Z,13.28
2017-10-22T14:06:06.436Z,13.3
2017-10-22T14:07:19.065Z,13.33
2017-10-22T14:08:31.693Z,13.23
2017-10-22T14:09:44.013Z,13.24
2017-10-22T14:10:56.634Z,13.27
2017-10-22T14:12:09.283Z,13.26
2017-10-22T14:13:21.592Z,13.27
2017-10-22T14:14:34.245Z,13.19
2017-10-22T14:15:46.223Z,13.17
2017-10-22T14:16:58.534Z,13.17
2017-10-22T14:18:10.833Z,13.19
2017-10-22T14:19:23.132Z,13.17
2017-10-22T14:20:35.153Z,13.16
2017-10-22T14:21:47.820Z,13.12
2017-10-22T14:23:00.158Z,13.13
2017-10-22T14:24:12.790Z,13.12
2017-10-22T14:25:25.078Z,13.19
2017-10-22T14:26:37.386Z,13.13
2017-10-22T14:27:50.023Z,13.08
2017-10-22T14:29:02.373Z,13.16
2017-10-22T14:30:14.689Z,12.99
2017-10-22T14:31:27.335Z,13.01
2017-10-22T14:32:40.003Z,13.03
2017-10-22T14:33:52.673Z,12.99
2017-10-22T14:35:05.003Z,13.02
2017-10-22T14:36:17.631Z,12.94
2017-10-22T14:37:30.264Z,12.93
2017-10-22T14:38:42.905Z,12.84
2017-10-22T14:39:55.229Z,12.83
2017-10-22T14:41:06.901Z,12.76
2017-10-22T14:42:19.530Z,12.76
2017-10-22T14:43:32.196Z,12.72
2017-10-22T14:44:44.503Z,12.7
2017-10-22T14:45:57.153Z,12.81
2017-10-22T14:47:09.804Z,12.76
2017-10-22T14:48:22.425Z,12.68
2017-10-22T14:49:35.040Z,12.63
2017-10-22T14:50:47.686Z,12.7
2017-10-22T14:52:00.318Z,12.7
2017-10-22T14:53:12.638Z,12.66
2017-10-22T14:54:24.957Z,12.7
2017-10-22T14:55:37.309Z,12.58
2017-10-22T14:56:49.307Z,12.62
2017-10-22T14:58:01.638Z,12.53
2017-10-22T14:59:13.988Z,12.55
2017-10-22T15:00:26.295Z,12.57
2017-10-22T15:01:38.614Z,12.51
2017-10-22T15:02:51.314Z,12.43
2017-10-22T15:04:03.960Z,12.53
2017-10-22T15:05:16.244Z,12.53
2017-10-22T15:06:28.560Z,12.37
2017-10-22T15:07:40.853Z,12.47
2017-10-22T15:08:53.475Z,12.43
2017-10-22T15:10:06.156Z,12.43
2017-10-22T15:11:18.763Z,12.35
2017-10-22T15:12:31.059Z,12.4
2017-10-22T15:13:43.411Z,12.35
2017-10-22T15:14:55.723Z,12.3
2017-10-22T15:16:08.021Z,12.26
2017-10-22T15:17:20.646Z,12.29
2017-10-22T15:18:32.641Z,12.3
2017-10-22T15:19:45.266Z,12.26
2017-10-22T15:20:57.910Z,12.25
2017-10-22T15:22:10.555Z,12.23
2017-10-22T15:23:22.522Z,12.21
2017-10-22T15:24:34.521Z,12.29
2017-10-22T15:25:47.168Z,12.26
2017-10-22T15:26:59.793Z,12.26
2017-10-22T15:28:12.106Z,12.17
2017-10-22T15:29:24.104Z,12.17
2017-10-22T15:30:36.097Z,12.2
2017-10-22T15:31:48.719Z,12.07
2017-10-22T15:33:01.002Z,12.07
2017-10-22T15:34:13.333Z,12.05
2017-10-22T15:35:25.954Z,12.11
2017-10-22T15:36:38.578Z,12.07